Buford, Colorado
Current Conditions -  °F | °C
As of 2:53 PM on Sunday 23 Nov 2014 (Local Time) from KEEO Reporting Station
Light Snow Light Snow  
Wind Chill: 23°   Ceiling: 4800
Heat Index: 31°   Visibility: 9mi
Dew Point: 20°   Wind: 9mph
Humidity: 64%   Direction: 250°WSW
Pressure: 29.99"   Gusts: NA
Location:  40.0347°N, 107.628°W
Report Text: KEEO 232153Z AUTO 25008KT 9SM -SN FEW021 SCT035 OVC048 M01/M07 A2999 RMK AO2 SNB49 SLP163 P0000 T10061067
Loading
Personal Weather Stations






























Interactive Weather Map New forecast layout! Learn more

10-Day Weather Forecast

Advertisements
Track Severe Weather on mobile